createdAt,value
2017-12-04T00:00:50.250Z,101526.64
2017-12-04T00:03:17.690Z,101513.38
2017-12-04T00:05:45.184Z,101514.36
2017-12-04T00:08:12.713Z,101514.21
2017-12-04T00:10:40.163Z,101512.81
2017-12-04T00:13:07.729Z,101507.70
2017-12-04T00:15:35.165Z,101512.38
2017-12-04T00:18:02.639Z,101518.16
2017-12-04T00:20:30.086Z,101529.38
2017-12-04T00:22:57.545Z,101531.59
2017-12-04T00:25:24.984Z,101530.21
2017-12-04T00:27:52.460Z,101537.52
2017-12-04T00:30:19.902Z,101526.81
2017-12-04T00:32:47.375Z,101533.66
2017-12-04T00:35:14.838Z,101527.27
2017-12-04T00:37:42.290Z,101536.81
2017-12-04T00:40:09.758Z,101531.34
2017-12-04T00:42:37.265Z,101531.27
2017-12-04T00:45:04.780Z,101533.15
2017-12-04T00:47:32.229Z,101542.91
2017-12-04T00:50:00.548Z,101532.03
2017-12-04T00:52:27.996Z,101551.09
2017-12-04T00:54:55.464Z,101543.08
2017-12-04T00:57:22.987Z,101548.91
2017-12-04T00:59:50.458Z,101544.94
2017-12-04T01:02:17.947Z,101552.11
2017-12-04T01:04:45.436Z,101549.48
2017-12-04T01:07:12.877Z,101545.45
2017-12-04T01:09:40.329Z,101547.33
2017-12-04T01:12:07.767Z,101544.63
2017-12-04T01:14:35.230Z,101553.17
2017-12-04T01:17:02.688Z,101555.22
2017-12-04T01:19:30.192Z,101551.82
2017-12-04T01:21:57.630Z,101552.80
2017-12-04T01:24:25.086Z,101555.50
2017-12-04T01:26:52.539Z,101557.98
2017-12-04T01:29:19.984Z,101559.39
2017-12-04T01:31:47.474Z,101565.77
2017-12-04T01:34:15.053Z,101569.53
2017-12-04T01:36:42.518Z,101564.72
2017-12-04T01:39:10.126Z,101577.48
2017-12-04T01:41:37.593Z,101576.34
2017-12-04T01:44:05.038Z,101570.67
2017-12-04T01:46:32.509Z,101569.75
2017-12-04T01:48:59.965Z,101568.30
2017-12-04T01:51:27.556Z,101570.64
2017-12-04T01:53:55.022Z,101563.32
2017-12-04T01:56:22.565Z,101566.86
2017-12-04T01:58:50.134Z,101570.00
2017-12-04T02:01:17.681Z,101565.87
2017-12-04T02:03:45.146Z,101567.67
2017-12-04T02:06:12.631Z,101573.82
2017-12-04T02:08:40.101Z,101569.67
2017-12-04T02:11:07.651Z,101577.38
2017-12-04T02:13:35.157Z,101581.75
2017-12-04T02:16:02.644Z,101576.23
2017-12-04T02:18:30.137Z,101581.95
2017-12-04T02:20:57.602Z,101578.48
2017-12-04T02:23:25.098Z,101583.29
2017-12-04T02:25:52.551Z,101575.61
2017-12-04T02:28:20.103Z,101575.94
2017-12-04T02:30:47.564Z,101579.91
2017-12-04T02:33:15.057Z,101582.50
2017-12-04T02:35:42.529Z,101583.52
2017-12-04T02:38:10.042Z,101573.52
2017-12-04T02:40:37.499Z,101574.05
2017-12-04T02:43:04.975Z,101576.36
2017-12-04T02:45:32.427Z,101571.84
2017-12-04T02:47:59.917Z,101572.72
2017-12-04T02:50:27.370Z,101577.41
2017-12-04T02:52:54.871Z,101578.56
2017-12-04T02:55:22.351Z,101580.73
2017-12-04T02:57:49.809Z,101587.78
2017-12-04T03:00:17.357Z,101583.34
2017-12-04T03:02:44.815Z,101582.31
2017-12-04T03:05:12.312Z,101579.70
2017-12-04T03:07:39.783Z,101577.47
2017-12-04T03:10:07.325Z,101577.55
2017-12-04T03:12:34.811Z,101586.52
2017-12-04T03:15:02.312Z,101583.92
2017-12-04T03:17:29.783Z,101584.75
2017-12-04T03:19:57.260Z,101590.16
2017-12-04T03:22:24.721Z,101593.50
2017-12-04T03:24:52.332Z,101593.03
2017-12-04T03:27:19.791Z,101589.96
2017-12-04T03:29:47.248Z,101589.99
2017-12-04T03:32:14.817Z,101584.88
2017-12-04T03:34:42.267Z,101590.06
2017-12-04T03:37:09.739Z,101590.09
2017-12-04T03:39:37.323Z,101585.29
2017-12-04T03:42:04.780Z,101585.93
2017-12-04T03:44:32.241Z,101585.66
2017-12-04T03:46:59.721Z,101587.32
2017-12-04T03:49:27.205Z,101587.67
2017-12-04T03:51:54.694Z,101587.59
2017-12-04T03:54:22.149Z,101592.33
2017-12-04T03:56:49.680Z,101597.58
2017-12-04T03:59:17.141Z,101591.42
2017-12-04T04:01:44.622Z,101592.58
2017-12-04T04:04:12.071Z,101588.24
2017-12-04T04:06:39.602Z,101587.86
2017-12-04T04:09:07.197Z,101586.91
2017-12-04T04:11:34.686Z,101593.19
2017-12-04T04:14:02.177Z,101593.05
2017-12-04T04:16:29.729Z,101598.28
2017-12-04T04:18:57.293Z,101599.16
2017-12-04T04:21:24.857Z,101600.88
2017-12-04T04:23:52.349Z,101609.19
2017-12-04T04:26:19.808Z,101612.35
2017-12-04T04:28:47.276Z,101611.92
2017-12-04T04:31:14.732Z,101623.89
2017-12-04T04:33:42.220Z,101617.42
2017-12-04T04:36:09.773Z,101616.08
2017-12-04T04:38:37.299Z,101621.94
2017-12-04T04:41:04.757Z,101627.95
2017-12-04T04:43:32.247Z,101624.25
2017-12-04T04:45:59.707Z,101636.51
2017-12-04T04:48:27.276Z,101638.30
2017-12-04T04:50:54.733Z,101638.02
2017-12-04T04:53:22.207Z,101631.30
2017-12-04T04:55:49.662Z,101624.73
2017-12-04T04:58:17.214Z,101626.25
2017-12-04T05:00:44.765Z,101620.53
2017-12-04T05:03:12.258Z,101624.92
2017-12-04T05:05:40.077Z,101619.38
2017-12-04T05:08:07.559Z,101622.52
2017-12-04T05:10:35.119Z,101620.16
2017-12-04T05:13:02.674Z,101624.13
2017-12-04T05:15:30.162Z,101627.55
2017-12-04T05:17:57.637Z,101630.93
2017-12-04T05:20:25.121Z,101633.45
2017-12-04T05:22:52.604Z,101633.97
2017-12-04T05:25:20.091Z,101626.16
2017-12-04T05:27:47.563Z,101635.30
2017-12-04T05:30:15.071Z,101635.98
2017-12-04T05:32:42.528Z,101631.75
2017-12-04T05:35:10.021Z,101643.55
2017-12-04T05:37:37.488Z,101640.04
2017-12-04T05:40:04.981Z,101646.87
2017-12-04T05:42:32.543Z,101639.19
2017-12-04T05:45:00.007Z,101636.89
2017-12-04T05:47:27.469Z,101645.14
2017-12-04T05:49:55.029Z,101646.98
2017-12-04T05:52:22.531Z,101653.81
2017-12-04T05:54:49.992Z,101649.55
2017-12-04T05:57:17.477Z,101658.20
2017-12-04T05:59:44.946Z,101652.53
2017-12-04T06:02:12.428Z,101646.51
2017-12-04T06:04:39.879Z,101646.95
2017-12-04T06:07:07.369Z,101650.77
2017-12-04T06:09:34.833Z,101652.34
2017-12-04T06:12:02.322Z,101661.23
2017-12-04T06:14:29.893Z,101668.02
2017-12-04T06:16:57.374Z,101661.80
2017-12-04T06:19:24.834Z,101663.96
2017-12-04T06:21:52.317Z,101667.95
2017-12-04T06:24:19.831Z,101668.88
2017-12-04T06:26:47.327Z,101664.73
2017-12-04T06:29:14.797Z,101672.64
2017-12-04T06:31:42.277Z,101678.54
2017-12-04T06:34:09.744Z,101682.56
2017-12-04T06:36:37.252Z,101680.33
2017-12-04T06:39:04.777Z,101684.04
2017-12-04T06:41:32.226Z,101696.52
2017-12-04T06:43:59.721Z,101691.45
2017-12-04T06:46:27.242Z,101696.98
2017-12-04T06:48:54.681Z,101700.20
2017-12-04T06:51:22.138Z,101701.66
2017-12-04T06:53:49.712Z,101707.78
2017-12-04T06:56:17.188Z,101709.25
2017-12-04T06:58:44.779Z,101714.64
2017-12-04T07:01:12.240Z,101727.88
2017-12-04T07:03:39.718Z,101734.34
2017-12-04T07:06:07.190Z,101739.09
2017-12-04T07:08:34.663Z,101735.66
2017-12-04T07:11:02.110Z,101737.98
2017-12-04T07:13:29.592Z,101731.80
2017-12-04T07:15:57.149Z,101728.13
2017-12-04T07:18:24.681Z,101740.09
2017-12-04T07:20:52.153Z,101728.77
2017-12-04T07:23:19.685Z,101740.81
2017-12-04T07:25:47.152Z,101746.05
2017-12-04T07:28:14.728Z,101753.52
2017-12-04T07:30:42.206Z,101755.59
2017-12-04T07:33:09.710Z,101757.77
2017-12-04T07:35:37.153Z,101760.52
2017-12-04T07:38:04.627Z,101757.14
2017-12-04T07:40:32.107Z,101764.81
2017-12-04T07:42:59.569Z,101753.41
2017-12-04T07:45:27.057Z,101752.52
2017-12-04T07:47:54.520Z,101763.08
2017-12-04T07:50:22.009Z,101770.60
2017-12-04T07:52:49.465Z,101769.84
2017-12-04T07:55:17.007Z,101771.72
2017-12-04T07:57:44.473Z,101767.16
2017-12-04T08:00:11.965Z,101757.70
2017-12-04T08:02:39.422Z,101761.80
2017-12-04T08:05:06.914Z,101762.91
2017-12-04T08:07:34.403Z,101762.91
2017-12-04T08:10:01.885Z,101760.99
2017-12-04T08:12:29.365Z,101759.70
2017-12-04T08:14:56.843Z,101768.91
2017-12-04T08:17:24.310Z,101773.76
2017-12-04T08:19:51.792Z,101777.50
2017-12-04T08:22:19.268Z,101779.47
2017-12-04T08:24:46.768Z,101776.37
2017-12-04T08:27:14.228Z,101778.47
2017-12-04T08:29:41.891Z,101781.38
2017-12-04T08:32:09.354Z,101780.29
2017-12-04T08:34:36.845Z,101778.94
2017-12-04T08:37:04.316Z,101786.44
2017-12-04T08:39:31.937Z,101787.42
2017-12-04T08:41:59.407Z,101792.22
2017-12-04T08:44:26.881Z,101791.80
2017-12-04T08:46:54.448Z,101802.00
2017-12-04T08:49:22.017Z,101808.73
2017-12-04T08:51:49.493Z,101795.08
2017-12-04T08:54:17.015Z,101809.14
2017-12-04T08:56:44.590Z,101811.30
2017-12-04T08:59:12.041Z,101809.82
2017-12-04T09:01:39.573Z,101819.05
2017-12-04T09:04:07.056Z,101824.36
2017-12-04T09:06:34.613Z,101823.03
2017-12-04T09:09:02.067Z,101822.34
2017-12-04T09:11:29.557Z,101818.69
2017-12-04T09:13:57.037Z,101813.70
2017-12-04T09:16:24.495Z,101815.63
2017-12-04T09:18:51.997Z,101814.45
2017-12-04T09:21:19.457Z,101824.45
2017-12-04T09:23:46.957Z,101816.86
2017-12-04T09:26:14.420Z,101816.58
2017-12-04T09:28:41.923Z,101818.38
2017-12-04T09:31:09.390Z,101821.85
2017-12-04T09:33:36.869Z,101824.13
2017-12-04T09:36:04.401Z,101836.97
2017-12-04T09:38:31.887Z,101837.00
2017-12-04T09:40:59.430Z,101835.21
2017-12-04T09:43:26.910Z,101831.67
2017-12-04T09:45:54.405Z,101833.70
2017-12-04T09:48:21.989Z,101832.03
2017-12-04T09:50:49.549Z,101834.86
2017-12-04T09:53:17.019Z,101828.62
2017-12-04T09:55:44.565Z,101836.47
2017-12-04T09:58:12.041Z,101827.06
2017-12-04T10:00:39.519Z,101837.09
2017-12-04T10:03:07.034Z,101835.84
2017-12-04T10:05:34.500Z,101840.55
2017-12-04T10:08:01.956Z,101842.41
2017-12-04T10:10:29.444Z,101833.41
2017-12-04T10:12:56.900Z,101829.42
2017-12-04T10:15:24.389Z,101828.75
2017-12-04T10:17:51.860Z,101824.94
2017-12-04T10:20:19.337Z,101828.58
2017-12-04T10:22:46.815Z,101828.11
2017-12-04T10:25:14.357Z,101815.27
2017-12-04T10:27:41.813Z,101819.75
2017-12-04T10:30:09.301Z,101826.48
2017-12-04T10:32:36.761Z,101818.28
2017-12-04T10:35:04.237Z,101817.06
2017-12-04T10:37:31.675Z,101819.22
2017-12-04T10:39:59.228Z,101832.73
2017-12-04T10:42:26.762Z,101826.89
2017-12-04T10:44:54.221Z,101824.30
2017-12-04T10:47:21.706Z,101823.94
2017-12-04T10:49:49.147Z,101827.06
2017-12-04T10:52:16.626Z,101831.62
2017-12-04T10:54:44.128Z,101826.30
2017-12-04T10:57:11.621Z,101824.09
2017-12-04T10:59:39.113Z,101822.69
2017-12-04T11:02:06.590Z,101823.70
2017-12-04T11:04:34.031Z,101821.60
2017-12-04T11:07:01.501Z,101815.36
2017-12-04T11:09:28.958Z,101814.38
2017-12-04T11:11:56.436Z,101821.34
2017-12-04T11:14:23.995Z,101826.87
2017-12-04T11:16:51.489Z,101829.41
2017-12-04T11:19:18.951Z,101828.17
2017-12-04T11:21:46.466Z,101830.77
2017-12-04T11:24:13.997Z,101837.52
2017-12-04T11:26:41.439Z,101835.33
2017-12-04T11:29:08.909Z,101835.13
2017-12-04T11:31:36.381Z,101841.76
2017-12-04T11:34:03.857Z,101836.86
2017-12-04T11:36:31.322Z,101838.41
2017-12-04T11:38:58.808Z,101841.92
2017-12-04T11:41:26.265Z,101840.89
2017-12-04T11:43:53.761Z,101849.23
2017-12-04T11:46:21.209Z,101845.03
2017-12-04T11:48:48.691Z,101848.66
2017-12-04T11:51:16.242Z,101844.41
2017-12-04T11:53:43.793Z,101841.36
2017-12-04T11:56:11.287Z,101840.39
2017-12-04T11:58:38.821Z,101840.11
2017-12-04T12:01:06.381Z,101849.46
2017-12-04T12:03:33.831Z,101850.09
2017-12-04T12:06:01.321Z,101848.66
2017-12-04T12:08:28.778Z,101855.66
2017-12-04T12:10:56.258Z,101863.03
2017-12-04T12:13:23.702Z,101852.09
2017-12-04T12:15:51.217Z,101859.41
2017-12-04T12:18:18.687Z,101856.96
2017-12-04T12:20:46.161Z,101855.56
2017-12-04T12:23:13.664Z,101854.66
2017-12-04T12:25:41.235Z,101857.62
2017-12-04T12:28:08.709Z,101859.20
2017-12-04T12:30:37.103Z,101865.34
2017-12-04T12:33:04.553Z,101861.28
2017-12-04T12:35:32.089Z,101856.48
2017-12-04T12:37:59.599Z,101856.09
2017-12-04T12:40:27.056Z,101856.67
2017-12-04T12:42:54.575Z,101851.91
2017-12-04T12:45:22.028Z,101848.44
2017-12-04T12:47:49.592Z,101850.11
2017-12-04T12:50:17.054Z,101854.09
2017-12-04T12:52:47.775Z,101845.86
2017-12-04T12:55:15.254Z,101850.70
2017-12-04T12:57:42.816Z,101850.77
2017-12-04T13:00:11.082Z,101857.64
2017-12-04T13:02:38.633Z,101850.57
2017-12-04T13:05:06.189Z,101847.43
2017-12-04T13:07:33.678Z,101846.51
2017-12-04T13:10:01.154Z,101844.55
2017-12-04T13:12:28.670Z,101847.65
2017-12-04T13:14:59.069Z,101849.85
2017-12-04T13:17:26.540Z,101846.00
2017-12-04T13:19:54.026Z,101858.67
2017-12-04T13:22:22.271Z,101851.64
2017-12-04T13:24:49.824Z,101850.34
2017-12-04T13:27:17.290Z,101844.88
2017-12-04T13:29:44.771Z,101846.86
2017-12-04T13:35:25.077Z,101852.11
2017-12-04T13:37:52.562Z,101850.78
2017-12-04T13:46:05.674Z,101852.64
2017-12-04T13:48:33.151Z,101849.20
2017-12-04T13:51:00.624Z,101854.47
2017-12-04T13:53:28.077Z,101849.90
2017-12-04T13:55:55.570Z,101842.38
2017-12-04T13:58:23.025Z,101846.70
2017-12-04T14:00:50.845Z,101842.83
2017-12-04T14:03:18.766Z,101837.98
2017-12-04T14:05:46.211Z,101836.73
2017-12-04T14:08:13.689Z,101840.90
2017-12-04T14:10:41.154Z,101844.59
2017-12-04T14:13:08.633Z,101834.55
2017-12-04T14:15:36.078Z,101844.52
2017-12-04T14:18:03.555Z,101843.58
2017-12-04T14:20:31.017Z,101847.06
2017-12-04T14:22:58.483Z,101852.30
2017-12-04T14:25:25.942Z,101855.49
2017-12-04T14:27:53.417Z,101862.08
2017-12-04T14:30:21.000Z,101858.27
2017-12-04T14:32:48.629Z,101862.09
2017-12-04T14:35:16.188Z,101865.11
2017-12-04T14:37:43.804Z,101864.30
2017-12-04T14:40:11.721Z,101870.55
2017-12-04T14:42:39.303Z,101873.87
2017-12-04T14:45:06.762Z,101875.63
2017-12-04T14:47:34.219Z,101879.55
2017-12-04T14:50:01.683Z,101886.61
2017-12-04T14:52:29.142Z,101884.41
2017-12-04T14:54:56.622Z,101887.22
2017-12-04T14:57:24.085Z,101891.45
2017-12-04T14:59:51.555Z,101891.31
2017-12-04T15:02:19.016Z,101898.11
2017-12-04T15:04:46.498Z,101898.95
2017-12-04T15:07:13.955Z,101898.53
2017-12-04T15:09:43.657Z,101906.12
2017-12-04T15:12:11.117Z,101912.21
2017-12-04T15:14:38.759Z,101921.09
2017-12-04T15:17:06.212Z,101917.95
2017-12-04T15:19:37.284Z,101922.28
2017-12-04T15:22:07.113Z,101920.73
2017-12-04T15:24:36.644Z,101927.75
2017-12-04T15:27:04.201Z,101924.52
2017-12-04T15:29:31.670Z,101925.00
2017-12-04T15:31:59.412Z,101937.37
2017-12-04T15:34:26.886Z,101940.46
2017-12-04T15:36:54.378Z,101939.49
2017-12-04T15:39:21.845Z,101942.56
2017-12-04T15:41:49.328Z,101946.97
2017-12-04T15:44:16.786Z,101949.11
2017-12-04T15:46:44.273Z,101948.64
2017-12-04T15:49:11.745Z,101954.78
2017-12-04T15:51:39.222Z,101960.03
2017-12-04T15:54:06.683Z,101963.75
2017-12-04T15:56:35.050Z,101961.02
2017-12-04T15:59:06.105Z,101958.47
2017-12-04T16:01:33.958Z,101964.31
2017-12-04T16:04:02.084Z,101966.66
2017-12-04T16:06:29.575Z,101973.47
2017-12-04T16:08:57.018Z,101978.28
2017-12-04T16:11:24.475Z,101978.76
2017-12-04T16:13:51.967Z,101981.45
2017-12-04T16:16:19.429Z,101982.39
2017-12-04T16:18:46.925Z,101977.03
2017-12-04T16:21:14.377Z,101984.70
2017-12-04T16:23:41.897Z,101979.66
2017-12-04T16:26:09.361Z,101978.23
2017-12-04T16:28:37.362Z,101977.00
2017-12-04T16:31:04.857Z,101976.01
2017-12-04T16:33:32.333Z,101981.40
2017-12-04T16:35:59.813Z,101982.20
2017-12-04T16:38:27.936Z,101980.88
2017-12-04T16:40:55.397Z,101989.61
2017-12-04T16:43:22.853Z,101990.78
2017-12-04T16:45:50.337Z,101987.70
2017-12-04T16:48:17.797Z,101991.33
2017-12-04T16:50:45.263Z,101993.27
2017-12-04T16:53:12.717Z,101998.97
2017-12-04T16:55:40.719Z,102010.16
2017-12-04T16:58:08.149Z,102007.91
2017-12-04T17:00:35.801Z,102007.62
2017-12-04T17:03:03.288Z,102006.11
2017-12-04T17:05:30.790Z,102010.89
2017-12-04T17:07:58.251Z,102012.66
2017-12-04T17:10:25.738Z,102020.17
2017-12-04T17:12:53.205Z,102023.37
2017-12-04T17:15:20.685Z,102020.00
2017-12-04T17:17:48.158Z,102015.76
2017-12-04T17:20:15.649Z,102017.92
2017-12-04T17:22:43.103Z,102011.22
2017-12-04T17:25:10.571Z,102004.05
2017-12-04T17:27:38.029Z,102002.13
2017-12-04T17:30:05.525Z,102007.20
2017-12-04T17:32:33.049Z,102013.89
2017-12-04T17:35:00.516Z,102025.23
2017-12-04T17:37:27.997Z,102027.99
2017-12-04T17:39:55.455Z,102038.96
2017-12-04T17:42:22.931Z,102038.34
2017-12-04T17:44:50.385Z,102036.92
2017-12-04T17:47:17.990Z,102044.97
2017-12-04T17:49:45.540Z,102042.94
2017-12-04T17:52:13.027Z,102043.92
2017-12-04T17:54:40.508Z,102047.79
2017-12-04T17:57:08.005Z,102050.75
2017-12-04T17:59:35.487Z,102050.55
2017-12-04T18:02:02.974Z,102054.52
2017-12-04T18:04:30.432Z,102060.70
2017-12-04T18:06:57.933Z,102064.52
2017-12-04T18:09:25.383Z,102072.66
2017-12-04T18:11:52.852Z,102071.36
2017-12-04T18:14:20.314Z,102077.84
2017-12-04T18:16:47.802Z,102079.23
2017-12-04T18:19:15.269Z,102083.56
2017-12-04T18:21:42.764Z,102077.67
2017-12-04T18:24:10.223Z,102085.94
2017-12-04T18:26:37.676Z,102090.23
2017-12-04T18:29:05.151Z,102092.73
2017-12-04T18:31:32.638Z,102089.66
2017-12-04T18:34:00.121Z,102093.91
2017-12-04T18:36:27.632Z,102102.39
2017-12-04T18:38:55.098Z,102108.37
2017-12-04T18:41:22.557Z,102109.41
2017-12-04T18:43:50.065Z,102114.81
2017-12-04T18:46:17.515Z,102117.68
2017-12-04T18:48:45.105Z,102119.58
2017-12-04T18:51:12.573Z,102128.81
2017-12-04T18:53:40.047Z,102125.30
2017-12-04T18:56:07.525Z,102125.97
2017-12-04T18:58:35.029Z,102135.20
2017-12-04T19:01:02.509Z,102129.28
2017-12-04T19:03:30.006Z,102123.94
2017-12-04T19:05:57.479Z,102124.61
2017-12-04T19:08:24.932Z,102121.60
2017-12-04T19:10:52.421Z,102128.56
2017-12-04T19:13:19.982Z,102137.85
2017-12-04T19:15:48.321Z,102135.67
2017-12-04T19:18:15.781Z,102146.59
2017-12-04T19:20:43.281Z,102151.39
2017-12-04T19:23:12.646Z,102151.82
2017-12-04T19:25:40.552Z,102148.91
2017-12-04T19:28:08.017Z,102155.95
2017-12-04T19:30:35.501Z,102154.92
2017-12-04T19:33:02.982Z,102150.69
2017-12-04T19:35:30.465Z,102144.64
2017-12-04T19:37:57.925Z,102149.73
2017-12-04T19:40:25.389Z,102151.28
2017-12-04T19:42:52.878Z,102151.93
2017-12-04T19:45:20.341Z,102159.45
2017-12-04T19:47:47.824Z,102155.44
2017-12-04T19:50:15.294Z,102155.90
2017-12-04T19:52:42.810Z,102161.95
2017-12-04T19:55:10.267Z,102165.05
2017-12-04T19:57:37.753Z,102174.95
2017-12-04T20:00:05.213Z,102171.56
2017-12-04T20:02:32.687Z,102172.41
2017-12-04T20:05:00.242Z,102165.39
2017-12-04T20:07:27.805Z,102168.99
2017-12-04T20:09:55.270Z,102170.95
2017-12-04T20:12:22.809Z,102174.61
2017-12-04T20:14:50.297Z,102171.55
2017-12-04T20:17:17.789Z,102174.67
2017-12-04T20:19:45.257Z,102176.28
2017-12-04T20:22:12.739Z,102181.80
2017-12-04T20:24:40.296Z,102180.63
2017-12-04T20:27:07.793Z,102181.11
2017-12-04T20:29:35.276Z,102196.32
2017-12-04T20:32:02.735Z,102186.56
2017-12-04T20:34:30.214Z,102190.20
2017-12-04T20:36:57.770Z,102199.41
2017-12-04T20:39:25.280Z,102205.54
2017-12-04T20:41:52.799Z,102208.14
2017-12-04T20:44:20.288Z,102213.88
2017-12-04T20:46:47.826Z,102213.28
2017-12-04T20:49:15.313Z,102212.25
2017-12-04T20:51:42.793Z,102209.58
2017-12-04T20:54:10.282Z,102205.30
2017-12-04T20:56:37.750Z,102214.60
2017-12-04T20:59:05.213Z,102214.10
2017-12-04T21:01:32.698Z,102217.78
2017-12-04T21:04:00.191Z,102219.98
2017-12-04T21:06:27.678Z,102219.80
2017-12-04T21:09:07.149Z,102230.33
2017-12-04T21:11:46.429Z,102229.87
2017-12-04T21:14:25.852Z,102229.63
2017-12-04T21:17:05.075Z,102229.48
2017-12-04T21:19:32.557Z,102226.95
2017-12-04T21:22:00.038Z,102230.64
2017-12-04T21:24:27.513Z,102238.83
2017-12-04T21:26:55.005Z,102243.11
2017-12-04T21:29:22.473Z,102243.63
2017-12-04T21:31:49.969Z,102245.16
2017-12-04T21:34:17.437Z,102248.16
2017-12-04T21:36:44.975Z,102247.78
2017-12-04T21:39:12.442Z,102251.84
2017-12-04T21:41:39.915Z,102253.03
2017-12-04T21:44:07.377Z,102257.56
2017-12-04T21:46:34.898Z,102256.78
2017-12-04T21:49:02.373Z,102256.27
2017-12-04T21:51:29.857Z,102261.81
2017-12-04T21:53:57.325Z,102268.88
2017-12-04T21:56:24.937Z,102266.27
2017-12-04T21:58:52.414Z,102270.08
2017-12-04T22:01:19.954Z,102271.90
2017-12-04T22:03:47.663Z,102265.41
2017-12-04T22:06:15.125Z,102269.19
2017-12-04T22:08:42.610Z,102269.16
2017-12-04T22:11:10.081Z,102270.16
2017-12-04T22:13:37.555Z,102273.92
2017-12-04T22:16:05.037Z,102277.59
2017-12-04T22:18:32.520Z,102277.31
2017-12-04T22:20:59.971Z,102279.70
2017-12-04T22:23:27.443Z,102275.70
2017-12-04T22:25:54.904Z,102280.05
2017-12-04T22:28:22.389Z,102279.10
2017-12-04T22:30:49.852Z,102277.16
2017-12-04T22:33:17.386Z,102284.39
2017-12-04T22:35:44.845Z,102282.41
2017-12-04T22:38:12.333Z,102280.38
2017-12-04T22:40:41.015Z,102282.16
2017-12-04T22:43:08.481Z,102284.98
2017-12-04T22:45:35.955Z,102287.82
2017-12-04T22:48:03.408Z,102296.93
2017-12-04T22:50:30.936Z,102287.01
2017-12-04T22:52:58.411Z,102292.70
2017-12-04T22:55:26.001Z,102292.72
2017-12-04T22:57:53.462Z,102281.86
2017-12-04T23:00:30.636Z,102294.91
2017-12-04T23:02:58.893Z,102293.33
2017-12-04T23:05:26.381Z,102288.42
2017-12-04T23:07:53.849Z,102291.23
2017-12-04T23:10:21.321Z,102297.87
2017-12-04T23:12:48.802Z,102295.22
2017-12-04T23:15:16.285Z,102294.03
2017-12-04T23:17:43.741Z,102289.13
2017-12-04T23:20:11.226Z,102286.35
2017-12-04T23:22:38.693Z,102292.98
2017-12-04T23:25:06.207Z,102297.52
2017-12-04T23:27:33.676Z,102302.33
2017-12-04T23:30:01.171Z,102296.84
2017-12-04T23:32:28.678Z,102296.89
2017-12-04T23:34:56.154Z,102302.30
2017-12-04T23:37:23.633Z,102300.05
2017-12-04T23:39:51.099Z,102309.61
2017-12-04T23:42:18.593Z,102307.01
2017-12-04T23:44:46.047Z,102307.20
2017-12-04T23:47:13.544Z,102309.59
2017-12-04T23:49:41.009Z,102310.86
2017-12-04T23:52:08.508Z,102314.42
2017-12-04T23:54:35.958Z,102311.83
2017-12-04T23:57:03.445Z,102317.23
2017-12-04T23:59:30.911Z,102313.27
